X  Sluiten METAR luchtvaart weer gegevens         EHGG Groningen Airport Eelde
Temperatuur
13°C Temperatuur
7°C Dauwpunt
67% Vochtigheid



Wind
19 KM/U
12 MPH
5 M/S
10 KTS



310°
NW
Huidig weer

Cloudy Bewolkt
Luchtdruk 1017 (hPa) - 30.03 (inHg)
Zicht 6 (mijl) - 10 (km)
Vliegveld
Vliegveld code EHGG

Locatie : Groningen Airport Eelde
Afstand: 14 (km)

Metar:
METAR EHGG 121425Z AUTO 31010KT 270V360 9999 BKN034/// OVC046/// 13/07 Q1017 TEMPO 7000 -SHRA FEW020TCU

Tijd: 12-06-2024 16:25 CEST